sensor_id;sensor_type;location;lat;lon;timestamp;pressure;altitude;pressure_sealevel;temperature;humidity
32761;BME280;19126;47.472;7.850;2022-09-29T00:02:13;95166.78;;;7.70;11.95
32761;BME280;19126;47.472;7.850;2022-09-29T00:04:41;95170.41;;;7.69;11.74
32761;BME280;19126;47.472;7.850;2022-09-29T00:07:08;95171.41;;;7.68;10.58
32761;BME280;19126;47.472;7.850;2022-09-29T00:09:35;95163.56;;;7.68;10.86
32761;BME280;19126;47.472;7.850;2022-09-29T00:12:03;95165.00;;;7.71;11.55
32761;BME280;19126;47.472;7.850;2022-09-29T00:14:30;95163.16;;;7.71;10.96
32761;BME280;19126;47.472;7.850;2022-09-29T00:16:57;95163.00;;;7.73;11.23
32761;BME280;19126;47.472;7.850;2022-09-29T00:19:24;95156.16;;;7.72;11.10
32761;BME280;19126;47.472;7.850;2022-09-29T00:21:54;95148.31;;;7.72;11.10
32761;BME280;19126;47.472;7.850;2022-09-29T00:24:21;95144.88;;;7.71;10.88
32761;BME280;19126;47.472;7.850;2022-09-29T00:26:49;95147.50;;;7.71;10.99
32761;BME280;19126;47.472;7.850;2022-09-29T00:29:16;95152.53;;;7.73;11.52
32761;BME280;19126;47.472;7.850;2022-09-29T00:31:43;95149.09;;;7.72;10.65
32761;BME280;19126;47.472;7.850;2022-09-29T00:34:10;95148.50;;;7.70;10.84
32761;BME280;19126;47.472;7.850;2022-09-29T00:36:37;95149.50;;;7.69;11.26
32761;BME280;19126;47.472;7.850;2022-09-29T00:39:07;95145.66;;;7.65;10.59
32761;BME280;19126;47.472;7.850;2022-09-29T00:41:39;95134.97;;;7.60;11.29
32761;BME280;19126;47.472;7.850;2022-09-29T00:44:57;95132.78;;;7.63;11.32
32761;BME280;19126;47.472;7.850;2022-09-29T00:47:26;95131.97;;;7.63;11.94
32761;BME280;19126;47.472;7.850;2022-09-29T00:49:58;95136.19;;;7.64;11.88
32761;BME280;19126;47.472;7.850;2022-09-29T00:52:32;95139.63;;;7.65;12.11
32761;BME280;19126;47.472;7.850;2022-09-29T00:55:06;95136.19;;;7.64;11.79
32761;BME280;19126;47.472;7.850;2022-09-29T00:57:39;95141.63;;;7.62;11.22
32761;BME280;19126;47.472;7.850;2022-09-29T01:00:13;95133.16;;;7.60;11.80
32761;BME280;19126;47.472;7.850;2022-09-29T01:02:46;95136.19;;;7.64;12.08
32761;BME280;19126;47.472;7.850;2022-09-29T01:05:19;95136.19;;;7.64;10.83
32761;BME280;19126;47.472;7.850;2022-09-29T01:07:48;95131.97;;;7.63;10.96
32761;BME280;19126;47.472;7.850;2022-09-29T01:10:18;95130.34;;;7.62;10.81
32761;BME280;19126;47.472;7.850;2022-09-29T01:12:47;95122.09;;;7.58;12.04
32761;BME280;19126;47.472;7.850;2022-09-29T01:15:18;95114.44;;;7.57;10.78
32761;BME280;19126;47.472;7.850;2022-09-29T01:17:48;95112.66;;;7.57;11.85
32761;BME280;19126;47.472;7.850;2022-09-29T01:20:18;95108.22;;;7.58;11.58
32761;BME280;19126;47.472;7.850;2022-09-29T01:23:30;95112.25;;;7.60;11.10
32761;BME280;19126;47.472;7.850;2022-09-29T01:32:35;95106.66;;;7.63;11.51
32761;BME280;19126;47.472;7.850;2022-09-29T01:35:11;95110.06;;;7.64;12.02
32761;BME280;19126;47.472;7.850;2022-09-29T01:38:07;95109.25;;;7.63;11.49
32761;BME280;19126;47.472;7.850;2022-09-29T01:40:47;95099.59;;;7.64;12.22
32761;BME280;19126;47.472;7.850;2022-09-29T01:43:19;95107.25;;;7.66;12.09
32761;BME280;19126;47.472;7.850;2022-09-29T01:45:56;95103.22;;;7.63;11.52
32761;BME280;19126;47.472;7.850;2022-09-29T01:48:32;95099.75;;;7.56;11.35
32761;BME280;19126;47.472;7.850;2022-09-29T01:51:05;95103.38;;;7.55;11.25
32761;BME280;19126;47.472;7.850;2022-09-29T01:53:36;95094.91;;;7.53;11.34
32761;BME280;19126;47.472;7.850;2022-09-29T01:56:17;95098.53;;;7.52;11.55
32761;BME280;19126;47.472;7.850;2022-09-29T01:58:53;95105.75;;;7.50;11.45
32761;BME280;19126;47.472;7.850;2022-09-29T02:01:24;95109.38;;;7.48;11.66
32761;BME280;19126;47.472;7.850;2022-09-29T02:03:58;95104.13;;;7.42;12.11
32761;BME280;19126;47.472;7.850;2022-09-29T02:06:31;95099.91;;;7.41;12.03
32761;BME280;19126;47.472;7.850;2022-09-29T02:09:06;95096.91;;;7.44;12.18
32761;BME280;19126;47.472;7.850;2022-09-29T02:11:37;95101.91;;;7.45;11.76
32761;BME280;19126;47.472;7.850;2022-09-29T02:14:13;95099.75;;;7.49;12.29
32761;BME280;19126;47.472;7.850;2022-09-29T02:16:47;95103.97;;;7.50;12.29
32761;BME280;19126;47.472;7.850;2022-09-29T02:19:18;95101.16;;;7.52;11.48
32761;BME280;19126;47.472;7.850;2022-09-29T02:21:45;95100.16;;;7.53;10.76
32761;BME280;19126;47.472;7.850;2022-09-29T02:24:13;95093.13;;;7.53;12.38
32761;BME280;19126;47.472;7.850;2022-09-29T02:26:41;95093.91;;;7.54;10.77
32761;BME280;19126;47.472;7.850;2022-09-29T02:29:10;95096.34;;;7.55;12.14
32761;BME280;19126;47.472;7.850;2022-09-29T02:31:38;95089.50;;;7.54;11.29
32761;BME280;19126;47.472;7.850;2022-09-29T02:34:08;95092.31;;;7.53;10.87
32761;BME280;19126;47.472;7.850;2022-09-29T02:36:45;95089.69;;;7.53;11.46
32761;BME280;19126;47.472;7.850;2022-09-29T02:39:29;95087.47;;;7.50;11.96
32761;BME280;19126;47.472;7.850;2022-09-29T02:42:09;95092.13;;;7.54;11.71
32761;BME280;19126;47.472;7.850;2022-09-29T02:45:18;95083.69;;;7.52;10.78
32761;BME280;19126;47.472;7.850;2022-09-29T02:48:30;95085.47;;;7.52;12.21
32761;BME280;19126;47.472;7.850;2022-09-29T02:51:12;95084.06;;;7.49;11.48
32761;BME280;19126;47.472;7.850;2022-09-29T02:54:00;95076.84;;;7.51;11.95
32761;BME280;19126;47.472;7.850;2022-09-29T02:56:37;95071.78;;;7.50;12.29
32761;BME280;19126;47.472;7.850;2022-09-29T02:59:10;95070.00;;;7.50;11.45
32761;BME280;19126;47.472;7.850;2022-09-29T03:01:46;95062.34;;;7.48;11.46
32761;BME280;19126;47.472;7.850;2022-09-29T03:04:14;95057.94;;;7.49;12.26
32761;BME280;19126;47.472;7.850;2022-09-29T03:06:41;95063.94;;;7.50;11.97
32761;BME280;19126;47.472;7.850;2022-09-29T03:09:09;95055.50;;;7.47;10.78
32761;BME280;19126;47.472;7.850;2022-09-29T03:11:37;95054.72;;;7.47;12.01
32761;BME280;19126;47.472;7.850;2022-09-29T03:14:04;95058.13;;;7.47;11.66
32761;BME280;19126;47.472;7.850;2022-09-29T03:16:32;95070.38;;;7.47;12.16
32761;BME280;19126;47.472;7.850;2022-09-29T03:19:00;95063.53;;;7.46;11.45
32761;BME280;19126;47.472;7.850;2022-09-29T03:21:27;95067.78;;;7.47;10.92
32761;BME280;19126;47.472;7.850;2022-09-29T03:23:54;95064.34;;;7.46;11.73
32761;BME280;19126;47.472;7.850;2022-09-29T03:26:23;95059.09;;;7.40;11.89
32761;BME280;19126;47.472;7.850;2022-09-29T03:28:51;95061.28;;;7.36;11.65
32761;BME280;19126;47.472;7.850;2022-09-29T03:31:18;95060.28;;;7.37;12.22
32761;BME280;19126;47.472;7.850;2022-09-29T03:33:46;95059.88;;;7.40;12.16
32761;BME280;19126;47.472;7.850;2022-09-29T03:36:13;95055.47;;;7.41;12.21
32761;BME280;19126;47.472;7.850;2022-09-29T03:38:40;95066.72;;;7.41;11.64
32761;BME280;19126;47.472;7.850;2022-09-29T03:41:08;95065.72;;;7.42;11.70
32761;BME280;19126;47.472;7.850;2022-09-29T03:43:37;95068.94;;;7.44;11.11
32761;BME280;19126;47.472;7.850;2022-09-29T03:46:05;95068.34;;;7.42;11.91
32761;BME280;19126;47.472;7.850;2022-09-29T03:48:32;95063.94;;;7.43;11.19
32761;BME280;19126;47.472;7.850;2022-09-29T03:51:00;95075.78;;;7.45;11.67
32761;BME280;19126;47.472;7.850;2022-09-29T03:53:27;95074.19;;;7.44;11.64
32761;BME280;19126;47.472;7.850;2022-09-29T03:55:54;95071.56;;;7.44;12.07
32761;BME280;19126;47.472;7.850;2022-09-29T03:58:21;95073.56;;;7.42;11.73
32761;BME280;19126;47.472;7.850;2022-09-29T04:00:50;95066.09;;;7.39;11.19
32761;BME280;19126;47.472;7.850;2022-09-29T04:03:18;95072.94;;;7.40;11.01
32761;BME280;19126;47.472;7.850;2022-09-29T04:05:46;95074.78;;;7.40;11.74
32761;BME280;19126;47.472;7.850;2022-09-29T04:08:14;95079.59;;;7.43;11.95
32761;BME280;19126;47.472;7.850;2022-09-29T04:10:41;95079.59;;;7.43;12.11
32761;BME280;19126;47.472;7.850;2022-09-29T04:13:09;95073.78;;;7.41;12.01
32761;BME280;19126;47.472;7.850;2022-09-29T04:15:36;95075.56;;;7.40;10.75
32761;BME280;19126;47.472;7.850;2022-09-29T04:18:05;95081.78;;;7.39;11.46
32761;BME280;19126;47.472;7.850;2022-09-29T04:20:32;95082.22;;;7.43;10.67
32761;BME280;19126;47.472;7.850;2022-09-29T04:22:59;95080.41;;;7.43;11.10
32761;BME280;19126;47.472;7.850;2022-09-29T04:25:27;95084.00;;;7.42;11.71
32761;BME280;19126;47.472;7.850;2022-09-29T04:27:54;95084.84;;;7.43;10.71
32761;BME280;19126;47.472;7.850;2022-09-29T04:30:21;95087.44;;;7.43;11.53
32761;BME280;19126;47.472;7.850;2022-09-29T04:32:48;95091.66;;;7.44;12.07
32761;BME280;19126;47.472;7.850;2022-09-29T04:35:16;95090.06;;;7.43;11.32
32761;BME280;19126;47.472;7.850;2022-09-29T04:37:44;95086.44;;;7.44;11.03
32761;BME280;19126;47.472;7.850;2022-09-29T04:40:11;95089.22;;;7.42;11.95
32761;BME280;19126;47.472;7.850;2022-09-29T04:42:38;95088.44;;;7.42;11.25
32761;BME280;19126;47.472;7.850;2022-09-29T04:45:06;95085.63;;;7.43;11.10
32761;BME280;19126;47.472;7.850;2022-09-29T04:47:33;95086.63;;;7.42;11.35
32761;BME280;19126;47.472;7.850;2022-09-29T04:50:00;95091.06;;;7.42;11.25
32761;BME280;19126;47.472;7.850;2022-09-29T04:52:29;95087.44;;;7.43;11.40
32761;BME280;19126;47.472;7.850;2022-09-29T04:54:56;95091.84;;;7.42;12.00
32761;BME280;19126;47.472;7.850;2022-09-29T04:57:23;95092.06;;;7.41;11.35
32761;BME280;19126;47.472;7.850;2022-09-29T04:59:50;95086.63;;;7.42;12.02
32761;BME280;19126;47.472;7.850;2022-09-29T05:02:18;95093.84;;;7.40;11.68
32761;BME280;19126;47.472;7.850;2022-09-29T05:04:47;95093.84;;;7.40;11.01
32761;BME280;19126;47.472;7.850;2022-09-29T05:07:14;95093.84;;;7.40;11.78
32761;BME280;19126;47.472;7.850;2022-09-29T05:09:42;95097.28;;;7.41;10.81
32761;BME280;19126;47.472;7.850;2022-09-29T05:12:09;95100.69;;;7.41;11.40
32761;BME280;19126;47.472;7.850;2022-09-29T05:14:37;95097.66;;;7.38;11.54
32761;BME280;19126;47.472;7.850;2022-09-29T05:17:04;95105.50;;;7.38;11.19
32761;BME280;19126;47.472;7.850;2022-09-29T05:19:31;95104.50;;;7.39;11.03
32761;BME280;19126;47.472;7.850;2022-09-29T05:21:58;95106.50;;;7.37;11.51
32761;BME280;19126;47.472;7.850;2022-09-29T05:24:26;95103.06;;;7.36;11.93
32761;BME280;19126;47.472;7.850;2022-09-29T05:26:54;95108.28;;;7.36;11.90
32761;BME280;19126;47.472;7.850;2022-09-29T05:29:21;95115.13;;;7.37;12.00
32761;BME280;19126;47.472;7.850;2022-09-29T05:31:49;95106.69;;;7.35;11.63
32761;BME280;19126;47.472;7.850;2022-09-29T05:34:17;95113.50;;;7.36;11.36
32761;BME280;19126;47.472;7.850;2022-09-29T05:36:44;95121.34;;;7.36;11.28
32761;BME280;19126;47.472;7.850;2022-09-29T05:39:11;95118.75;;;7.36;12.22
32761;BME280;19126;47.472;7.850;2022-09-29T05:41:38;95122.34;;;7.35;11.20
32761;BME280;19126;47.472;7.850;2022-09-29T05:44:07;95114.50;;;7.35;11.69
32761;BME280;19126;47.472;7.850;2022-09-29T05:46:34;95123.16;;;7.36;11.57
32761;BME280;19126;47.472;7.850;2022-09-29T05:49:02;95121.19;;;7.38;12.32
32761;BME280;19126;47.472;7.850;2022-09-29T05:51:29;95120.56;;;7.36;11.66
32761;BME280;19126;47.472;7.850;2022-09-29T05:53:56;95126.41;;;7.38;11.76
32761;BME280;19126;47.472;7.850;2022-09-29T05:56:26;95128.81;;;7.39;11.96
32761;BME280;19126;47.472;7.850;2022-09-29T05:58:54;95133.25;;;7.39;11.02
32761;BME280;19126;47.472;7.850;2022-09-29T06:01:25;95134.03;;;7.39;11.30
32761;BME280;19126;47.472;7.850;2022-09-29T06:03:52;95129.41;;;7.41;11.04
32761;BME280;19126;47.472;7.850;2022-09-29T06:06:22;95131.84;;;7.43;12.01
32761;BME280;19126;47.472;7.850;2022-09-29T06:08:50;95138.09;;;7.42;11.44
32761;BME280;19126;47.472;7.850;2022-09-29T06:11:19;95130.25;;;7.42;11.25
32761;BME280;19126;47.472;7.850;2022-09-29T06:13:48;95129.25;;;7.43;11.99
32761;BME280;19126;47.472;7.850;2022-09-29T06:16:20;95127.25;;;7.45;10.99
32761;BME280;19126;47.472;7.850;2022-09-29T06:18:49;95127.25;;;7.45;11.61
32761;BME280;19126;47.472;7.850;2022-09-29T06:21:18;95134.09;;;7.46;12.12
32761;BME280;19126;47.472;7.850;2022-09-29T06:23:46;95136.88;;;7.44;11.30
32761;BME280;19126;47.472;7.850;2022-09-29T06:26:16;95127.66;;;7.48;11.24
32761;BME280;19126;47.472;7.850;2022-09-29T06:28:44;95130.88;;;7.51;11.44
32761;BME280;19126;47.472;7.850;2022-09-29T06:31:13;95130.88;;;7.51;11.75
32761;BME280;19126;47.472;7.850;2022-09-29T06:33:41;95126.09;;;7.54;10.96
32761;BME280;19126;47.472;7.850;2022-09-29T06:36:17;95124.09;;;7.56;11.87
32761;BME280;19126;47.472;7.850;2022-09-29T06:39:03;95121.91;;;7.60;11.95
32761;BME280;19126;47.472;7.850;2022-09-29T06:41:31;95124.75;;;7.65;11.55
32761;BME280;19126;47.472;7.850;2022-09-29T06:44:00;95122.97;;;7.72;11.64
32761;BME280;19126;47.472;7.850;2022-09-29T06:46:28;95128.00;;;7.74;11.56
32761;BME280;19126;47.472;7.850;2022-09-29T06:48:55;95116.13;;;7.71;11.87
32761;BME280;19126;47.472;7.850;2022-09-29T06:51:25;95125.19;;;7.75;12.02
32761;BME280;19126;47.472;7.850;2022-09-29T06:53:52;95128.41;;;7.71;11.67
32761;BME280;19126;47.472;7.850;2022-09-29T06:56:19;95137.47;;;7.75;12.23
32761;BME280;19126;47.472;7.850;2022-09-29T06:58:46;95139.31;;;7.81;12.20
32761;BME280;19126;47.472;7.850;2022-09-29T07:01:14;95129.06;;;7.86;11.44
32761;BME280;19126;47.472;7.850;2022-09-29T07:03:41;95134.31;;;7.93;10.98
32761;BME280;19126;47.472;7.850;2022-09-29T07:06:09;95141.41;;;7.99;12.06
32761;BME280;19126;47.472;7.850;2022-09-29T07:08:38;95140.81;;;8.04;12.20
32761;BME280;19126;47.472;7.850;2022-09-29T07:11:08;95145.47;;;8.09;12.28
32761;BME280;19126;47.472;7.850;2022-09-29T07:13:36;95150.50;;;8.10;11.44
32761;BME280;19126;47.472;7.850;2022-09-29T07:16:05;95160.63;;;8.20;11.30
32761;BME280;19126;47.472;7.850;2022-09-29T07:18:37;95156.19;;;8.20;12.09
32761;BME280;19126;47.472;7.850;2022-09-29T07:21:07;95154.38;;;8.21;11.56
32761;BME280;19126;47.472;7.850;2022-09-29T07:23:37;95160.63;;;8.20;10.89
32761;BME280;19126;47.472;7.850;2022-09-29T07:26:06;95154.56;;;8.19;11.46
32761;BME280;19126;47.472;7.850;2022-09-29T07:28:34;95157.78;;;8.21;11.62
32761;BME280;19126;47.472;7.850;2022-09-29T07:31:04;95163.41;;;8.18;11.67
32761;BME280;19126;47.472;7.850;2022-09-29T07:33:32;95162.22;;;8.21;11.90
32761;BME280;19126;47.472;7.850;2022-09-29T07:36:00;95157.22;;;8.26;12.35
32761;BME280;19126;47.472;7.850;2022-09-29T07:38:29;95153.16;;;8.24;12.08
32761;BME280;19126;47.472;7.850;2022-09-29T07:41:01;95161.44;;;8.27;12.04
32761;BME280;19126;47.472;7.850;2022-09-29T07:43:29;95166.06;;;8.32;12.75
32761;BME280;19126;47.472;7.850;2022-09-29T07:45:57;95169.97;;;8.43;12.62
32761;BME280;19126;47.472;7.850;2022-09-29T07:48:25;95173.59;;;8.48;12.22
32761;BME280;19126;47.472;7.850;2022-09-29T07:51:00;95175.41;;;8.48;12.39
32761;BME280;19126;47.472;7.850;2022-09-29T07:53:28;95175.66;;;8.60;13.32
32761;BME280;19126;47.472;7.850;2022-09-29T07:55:56;95177.31;;;8.68;12.89
32761;BME280;19126;47.472;7.850;2022-09-29T07:58:29;95174.06;;;8.72;12.90
32761;BME280;19126;47.472;7.850;2022-09-29T08:00:57;95182.97;;;8.78;12.54
32761;BME280;19126;47.472;7.850;2022-09-29T08:03:24;95176.72;;;8.79;13.78
32761;BME280;19126;47.472;7.850;2022-09-29T08:05:51;95188.00;;;8.73;14.74
32761;BME280;19126;47.472;7.850;2022-09-29T08:08:18;95186.38;;;8.72;16.25
32761;BME280;19126;47.472;7.850;2022-09-29T08:10:46;95190.41;;;8.81;15.94
32761;BME280;19126;47.472;7.850;2022-09-29T08:13:13;95195.44;;;8.76;17.44
32761;BME280;19126;47.472;7.850;2022-09-29T08:15:41;95201.69;;;8.82;20.00
32761;BME280;19126;47.472;7.850;2022-09-29T08:18:09;95206.16;;;8.94;20.97
32761;BME280;19126;47.472;7.850;2022-09-29T08:20:36;95208.97;;;9.00;21.53
32761;BME280;19126;47.472;7.850;2022-09-29T08:23:03;95211.59;;;9.00;23.36
32761;BME280;19126;47.472;7.850;2022-09-29T08:25:31;95219.06;;;9.03;23.20
32761;BME280;19126;47.472;7.850;2022-09-29T08:28:00;95219.06;;;9.03;25.54
32761;BME280;19126;47.472;7.850;2022-09-29T08:30:27;95219.66;;;9.05;26.51
32761;BME280;19126;47.472;7.850;2022-09-29T08:32:56;95221.06;;;9.01;28.68
32761;BME280;19126;47.472;7.850;2022-09-29T08:35:23;95226.72;;;9.11;28.97
32761;BME280;19126;47.472;7.850;2022-09-29T08:37:52;95224.72;;;9.13;29.36
32761;BME280;19126;47.472;7.850;2022-09-29T08:40:26;95229.97;;;9.13;30.31
32761;BME280;19126;47.472;7.850;2022-09-29T08:43:02;95231.75;;;9.06;35.35
32761;BME280;19126;47.472;7.850;2022-09-29T08:45:39;95239.84;;;9.11;38.80
32761;BME280;19126;47.472;7.850;2022-09-29T08:48:13;95238.22;;;9.10;42.92
32761;BME280;19126;47.472;7.850;2022-09-29T08:50:48;95236.59;;;9.09;48.43
32761;BME280;19126;47.472;7.850;2022-09-29T08:53:19;95249.09;;;9.14;48.13
32761;BME280;19126;47.472;7.850;2022-09-29T08:55:51;95234.97;;;9.15;49.41
32761;BME280;19126;47.472;7.850;2022-09-29T08:58:20;95244.88;;;9.19;50.62
32761;BME280;19126;47.472;7.850;2022-09-29T09:00:59;95247.50;;;9.19;52.42
32761;BME280;19126;47.472;7.850;2022-09-29T09:04:06;95247.69;;;9.18;57.21
32761;BME280;19126;47.472;7.850;2022-09-29T09:06:48;95243.66;;;9.22;58.30
32761;BME280;19126;47.472;7.850;2022-09-29T09:09:47;95252.75;;;9.19;61.45
32761;BME280;19126;47.472;7.850;2022-09-29T09:12:57;95248.28;;;9.20;64.07
32761;BME280;19126;47.472;7.850;2022-09-29T09:15:46;95253.38;;;9.28;65.08
32761;BME280;19126;47.472;7.850;2022-09-29T09:18:48;95240.06;;;9.30;66.38
32761;BME280;19126;47.472;7.850;2022-09-29T09:21:27;95263.88;;;9.42;66.24
32761;BME280;19126;47.472;7.850;2022-09-29T09:24:07;95250.34;;;9.51;63.65
32761;BME280;19126;47.472;7.850;2022-09-29T09:26:41;95260.63;;;9.60;61.81
32761;BME280;19126;47.472;7.850;2022-09-29T09:29:19;95247.31;;;9.55;64.79
32761;BME280;19126;47.472;7.850;2022-09-29T09:31:54;95254.41;;;9.54;71.49
32761;BME280;19126;47.472;7.850;2022-09-29T09:34:30;95253.38;;;9.62;70.94
32761;BME280;19126;47.472;7.850;2022-09-29T09:37:04;95248.34;;;9.67;70.86
32761;BME280;19126;47.472;7.850;2022-09-29T09:39:39;95247.31;;;9.68;70.00
32761;BME280;19126;47.472;7.850;2022-09-29T09:42:17;95245.91;;;9.72;67.30
32761;BME280;19126;47.472;7.850;2022-09-29T09:44:47;95250.56;;;9.77;68.63
32761;BME280;19126;47.472;7.850;2022-09-29T09:47:24;95245.50;;;9.82;70.01
32761;BME280;19126;47.472;7.850;2022-09-29T09:49:57;95243.28;;;9.92;71.91
32761;BME280;19126;47.472;7.850;2022-09-29T09:52:32;95242.84;;;10.02;72.71
32761;BME280;19126;47.472;7.850;2022-09-29T09:55:05;95239.22;;;10.10;75.60
32761;BME280;19126;47.472;7.850;2022-09-29T09:57:49;95245.63;;;10.21;81.03
32761;BME280;19126;47.472;7.850;2022-09-29T10:00:23;95239.19;;;10.17;85.03
32761;BME280;19126;47.472;7.850;2022-09-29T10:02:54;95236.94;;;10.27;81.57
32761;BME280;19126;47.472;7.850;2022-09-29T10:05:30;95238.34;;;10.23;84.91
32761;BME280;19126;47.472;7.850;2022-09-29T10:07:59;95233.06;;;10.36;80.21
32761;BME280;19126;47.472;7.850;2022-09-29T10:10:28;95240.34;;;10.48;76.17
32761;BME280;19126;47.472;7.850;2022-09-29T10:13:01;95244.50;;;10.69;75.58
32761;BME280;19126;47.472;7.850;2022-09-29T10:15:32;95245.84;;;10.85;77.82
32761;BME280;19126;47.472;7.850;2022-09-29T10:18:09;95246.44;;;10.87;84.78
32761;BME280;19126;47.472;7.850;2022-09-29T10:20:40;95248.19;;;10.61;96.57
32761;BME280;19126;47.472;7.850;2022-09-29T10:23:28;95255.84;;;10.56;100.00
32761;BME280;19126;47.472;7.850;2022-09-29T10:26:04;95247.38;;;10.61;100.00
32761;BME280;19126;47.472;7.850;2022-09-29T10:28:40;95244.91;;;10.66;100.00
32761;BME280;19126;47.472;7.850;2022-09-29T10:31:19;95242.28;;;10.66;100.00
32761;BME280;19126;47.472;7.850;2022-09-29T10:33:52;95245.94;;;10.58;100.00
32761;BME280;19126;47.472;7.850;2022-09-29T10:36:22;95248.97;;;10.68;100.00
32761;BME280;19126;47.472;7.850;2022-09-29T10:38:52;95255.09;;;10.94;100.00
32761;BME280;19126;47.472;7.850;2022-09-29T10:41:20;95253.66;;;10.98;100.00
32761;BME280;19126;47.472;7.850;2022-09-29T10:43:48;95255.81;;;11.08;100.00
32761;BME280;19126;47.472;7.850;2022-09-29T10:46:47;95256.75;;;11.21;100.00
32761;BME280;19126;47.472;7.850;2022-09-29T10:49:18;95246.97;;;11.35;100.00
32761;BME280;19126;47.472;7.850;2022-09-29T10:51:58;95240.09;;;11.34;100.00
32761;BME280;19126;47.472;7.850;2022-09-29T10:54:28;95242.84;;;11.46;100.00
32761;BME280;19126;47.472;7.850;2022-09-29T10:56:57;95243.75;;;11.58;100.00
32761;BME280;19126;47.472;7.850;2022-09-29T10:59:26;95250.63;;;11.84;100.00
32761;BME280;19126;47.472;7.850;2022-09-29T11:01:56;95248.06;;;12.03;100.00
32761;BME280;19126;47.472;7.850;2022-09-29T11:04:26;95245.03;;;12.25;100.00
32761;BME280;19126;47.472;7.850;2022-09-29T11:06:57;95239.78;;;11.99;100.00
32761;BME280;19126;47.472;7.850;2022-09-29T11:09:38;95242.81;;;12.22;100.00
32761;BME280;19126;47.472;7.850;2022-09-29T11:12:33;95250.72;;;12.40;100.00
32761;BME280;19126;47.472;7.850;2022-09-29T11:15:23;95244.53;;;12.35;100.00
32761;BME280;19126;47.472;7.850;2022-09-29T11:17:51;95244.97;;;12.50;100.00
32761;BME280;19126;47.472;7.850;2022-09-29T11:20:21;95250.72;;;12.59;100.00
32761;BME280;19126;47.472;7.850;2022-09-29T11:23:23;95248.81;;;12.66;100.00
32761;BME280;19126;47.472;7.850;2022-09-29T11:26:24;95250.28;;;12.62;100.00
32761;BME280;19126;47.472;7.850;2022-09-29T11:29:26;95254.16;;;12.78;100.00
32761;BME280;19126;47.472;7.850;2022-09-29T11:32:14;95247.84;;;12.79;100.00
32761;BME280;19126;47.472;7.850;2022-09-29T11:35:17;95246.53;;;12.88;100.00
32761;BME280;19126;47.472;7.850;2022-09-29T11:38:08;95253.31;;;12.96;100.00
32761;BME280;19126;47.472;7.850;2022-09-29T11:40:56;95252.44;;;12.84;100.00
32761;BME280;19126;47.472;7.850;2022-09-29T11:43:44;95247.75;;;12.86;100.00
32761;BME280;19126;47.472;7.850;2022-09-29T11:46:47;95253.72;;;12.63;100.00
32761;BME280;19126;47.472;7.850;2022-09-29T11:49:38;95257.00;;;12.58;100.00
32761;BME280;19126;47.472;7.850;2022-09-29T11:52:32;95254.81;;;12.36;100.00
32761;BME280;19126;47.472;7.850;2022-09-29T11:55:16;95255.69;;;12.49;100.00
32761;BME280;19126;47.472;7.850;2022-09-29T11:58:00;95257.16;;;12.63;100.00
32761;BME280;19126;47.472;7.850;2022-09-29T12:00:37;95260.63;;;12.45;100.00
32761;BME280;19126;47.472;7.850;2022-09-29T12:03:26;95254.38;;;12.58;100.00
32761;BME280;19126;47.472;7.850;2022-09-29T12:06:14;95249.56;;;12.55;100.00
32761;BME280;19126;47.472;7.850;2022-09-29T12:09:07;95244.72;;;12.52;100.00
32761;BME280;19126;47.472;7.850;2022-09-29T12:11:48;95253.22;;;12.54;100.00
32761;BME280;19126;47.472;7.850;2022-09-29T12:14:26;95250.56;;;12.54;100.00
32761;BME280;19126;47.472;7.850;2022-09-29T12:16:59;95238.66;;;12.51;100.00
32761;BME280;19126;47.472;7.850;2022-09-29T12:19:31;95242.97;;;12.27;100.00
32761;BME280;19126;47.472;7.850;2022-09-29T12:22:03;95248.19;;;12.34;100.00
32761;BME280;19126;47.472;7.850;2022-09-29T12:24:36;95244.50;;;12.16;100.00
32761;BME280;19126;47.472;7.850;2022-09-29T12:27:09;95241.00;;;12.22;100.00
32761;BME280;19126;47.472;7.850;2022-09-29T12:29:44;95248.66;;;12.05;100.00
32761;BME280;19126;47.472;7.850;2022-09-29T12:32:19;95244.38;;;12.11;100.00
32761;BME280;19126;47.472;7.850;2022-09-29T12:34:50;95247.50;;;12.20;100.00
32761;BME280;19126;47.472;7.850;2022-09-29T12:37:25;95246.75;;;12.12;100.00
32761;BME280;19126;47.472;7.850;2022-09-29T12:40:02;95251.72;;;12.02;100.00
32761;BME280;19126;47.472;7.850;2022-09-29T12:42:44;95243.94;;;12.14;100.00
32761;BME280;19126;47.472;7.850;2022-09-29T12:45:24;95243.94;;;12.14;100.00
32761;BME280;19126;47.472;7.850;2022-09-29T12:48:05;95255.00;;;11.97;100.00
32761;BME280;19126;47.472;7.850;2022-09-29T12:50:43;95251.22;;;11.86;100.00
32761;BME280;19126;47.472;7.850;2022-09-29T12:53:18;95246.75;;;11.87;100.00
32761;BME280;19126;47.472;7.850;2022-09-29T12:55:53;95243.53;;;11.85;100.00
32761;BME280;19126;47.472;7.850;2022-09-29T12:58:35;95250.50;;;12.05;100.00
32761;BME280;19126;47.472;7.850;2022-09-29T13:01:24;95248.88;;;12.04;100.00
32761;BME280;19126;47.472;7.850;2022-09-29T13:04:47;95242.75;;;12.10;100.00
32761;BME280;19126;47.472;7.850;2022-09-29T13:14:24;95242.25;;;11.94;100.00
32761;BME280;19126;47.472;7.850;2022-09-29T13:17:10;95238.28;;;11.85;100.00
32761;BME280;19126;47.472;7.850;2022-09-29T13:20:03;95245.31;;;11.91;100.00
32761;BME280;19126;47.472;7.850;2022-09-29T13:23:08;95241.44;;;11.94;100.00
32761;BME280;19126;47.472;7.850;2022-09-29T13:25:50;95248.06;;;11.78;100.00
32761;BME280;19126;47.472;7.850;2022-09-29T13:28:27;95250.19;;;11.62;100.00
32761;BME280;19126;47.472;7.850;2022-09-29T13:31:01;95248.31;;;11.69;100.00
32761;BME280;19126;47.472;7.850;2022-09-29T13:33:31;95246.63;;;11.56;100.00
32761;BME280;19126;47.472;7.850;2022-09-29T13:35:59;95244.19;;;11.55;100.00
32761;BME280;19126;47.472;7.850;2022-09-29T13:38:30;95250.16;;;11.69;100.00
32761;BME280;19126;47.472;7.850;2022-09-29T13:41:15;95250.75;;;11.71;100.00
32761;BME280;19126;47.472;7.850;2022-09-29T13:44:03;95256.97;;;11.77;100.00
32761;BME280;19126;47.472;7.850;2022-09-29T13:46:38;95259.22;;;11.73;100.00
32761;BME280;19126;47.472;7.850;2022-09-29T13:49:22;95257.41;;;11.73;100.00
32761;BME280;19126;47.472;7.850;2022-09-29T13:51:51;95256.53;;;11.80;100.00
32761;BME280;19126;47.472;7.850;2022-09-29T13:54:34;95263.03;;;11.77;100.00